Hlavní strana
METAR-TAF:

METAR-TAF

Letiště :

Niamey, Niger

zeměpisná šířka: 13-29N, zeměpisná délka: 002-10E, výška: 223 m

Aktuální stav počasí

Zpráva byla vytvořena před 44 minutami, v 15:00 UTC
vítr z různých směrů 3 kt
Teplota 37°C
Vlhkost vzduchu 24%
Tlak 1011 hPa
Viditelnost 10 km a více
Skoro jasno ve výšce 3300 ft

METAR: DRRN 151500Z VRB03KT 9999 FEW033 37/13 Q1011 NOSIG

Čas: 16:44 (15:44 UTC)

Předpověď počasí

Zpráva byla vytvořena před 4 hodinami a 44 minutami, v 11:00 UTC
Předpověď platná od 15 v 12 UTC do 16 v 18 UTC
Západojihozápadní vítr 8 kt
Viditelnost: 8000 m
Pravděpodobnost 30% :
Dočasný
od 15 v 15 UTC do 15 v 20 UTC
Skoro jasno ve výšce 4000 ft, Cumulonimbus.
bouřka

TAF: DRRN 151100Z 1512/1618 24008KT 8000 NSC PROB30 TEMPO 1515/1520 TS FEW040CB

Stav a předpovědi počasí z více než 4 000 letišť (zprávy METAR a TAF).

Červené a žluté tečky na mapě představují dostupné meteorologické stanice.

Když kurzor umístíte na tečku, zobrazí se název stanice.

Pak kliknutím zobrazíte stav a předpověď počasí.

Chcete-li změnit mapu, kliknutím na zelené tlačítko se znaménkem +mapu přiblížíte, kliknutím na zelené tlačítko se znaménkem – mapu oddálíte a kliknutím na zelené šipky přejdete na sousední mapy.


METAR-TAF: